Observation data for Goodlett on 03/11/2018      Previous  Date  Next       Current Mesonet Observations  Soil Data  Daily Summary Page  Observations in Plain Language
KGDS 110600Z 01019G24KT 16/11 A2989 RMK A01 T01590109  RH  073%=      5-min Rain = 0
KGDS 110605Z 01019G24KT 16/10 A299 RMK A01 T01600103  RH  070%=      5-min Rain = 0
KGDS 110610Z 01016G21KT 16/10 A2991 RMK A01 T01600104  RH  071%=      5-min Rain = 0
KGDS 110615Z 01017G25KT 16/11 A2991 RMK A01 T01590105  RH  072%=      5-min Rain = 0
KGDS 110620Z 00018G25KT 16/10 A2992 RMK A01 T01590098  RH  068%=      5-min Rain = 0
KGDS 110625Z 00018G24KT 16/09 A2993 RMK A01 T01580093  RH  066%=      5-min Rain = 0
KGDS 110630Z 00019G24KT 16/09 A2993 RMK A01 T01570085  RH  063%=      5-min Rain = 0
KGDS 110635Z 00018G23KT 16/08 A2993 RMK A01 T01560078  RH  061%=      5-min Rain = 0
KGDS 110640Z 36021G28KT 15/06 A2994 RMK A01 T01540064  RH  056%=      5-min Rain = 0
KGDS 110645Z 01023G31KT 16/04 A2994 RMK A01 T01550042  RH  048%=      5-min Rain = 0
KGDS 110650Z 01024G31KT 15/03 A2994 RMK A01 T01540026  RH  043%=      5-min Rain = 0
KGDS 110655Z 01022G28KT 15/02 A2995 RMK A01 T01540021  RH  041%=      5-min Rain = 0
KGDS 110700Z 01022G30KT 15/02 A2995 RMK A01 T01520020  RH  041%=      5-min Rain = 0
KGDS 110705Z 01022G31KT 15/01 A2995 RMK A01 T01500014  RH  040%=      5-min Rain = 0
KGDS 110710Z 01024G31KT 15/01 A2995 RMK A01 T01500007  RH  038%=      5-min Rain = 0
KGDS 110715Z 01021G30KT 15/00 A2996 RMK A01 T01490002  RH  037%=      5-min Rain = 0
KGDS 110720Z 01023G30KT 15/M00 A2996 RMK A01 T01481004  RH  036%=      5-min Rain = 0
KGDS 110725Z 01019G27KT 15/M01 A2997 RMK A01 T01471005  RH  036%=      5-min Rain = 0
KGDS 110730Z 01022G28KT 15/M01 A2997 RMK A01 T01471009  RH  035%=      5-min Rain = 0
KGDS 110735Z 01022G29KT 15/M01 A2997 RMK A01 T01461012  RH  034%=      5-min Rain = 0
KGDS 110740Z 01020G30KT 15/M02 A2997 RMK A01 T01461015  RH  034%=      5-min Rain = 0
KGDS 110745Z 01022G30KT 15/M02 A2998 RMK A01 T01451017  RH  033%=      5-min Rain = 0
KGDS 110750Z 01023G28KT 15/M02 A2998 RMK A01 T01451018  RH  033%=      5-min Rain = 0
KGDS 110755Z 01021G31KT 15/M02 A2998 RMK A01 T01451019  RH  032%=      5-min Rain = 0
KGDS 110800Z 01022G32KT 15/M02 A2999 RMK A01 T01451020  RH  032%=      5-min Rain = 0
KGDS 110805Z 01019G26KT 14/M02 A2999 RMK A01 T01431020  RH  033%=      5-min Rain = 0
KGDS 110810Z 01021G28KT 14/M02 A2999 RMK A01 T01421021  RH  033%=      5-min Rain = 0
KGDS 110815Z 01021G27KT 14/M02 A2999 RMK A01 T01421021  RH  033%=      5-min Rain = 0
KGDS 110820Z 01022G28KT 14/M02 A2999 RMK A01 T01421021  RH  033%=      5-min Rain = 0
KGDS 110825Z 01023G29KT 14/M02 A2999 RMK A01 T01411020  RH  033%=      5-min Rain = 0
KGDS 110830Z 01019G26KT 14/M02 A30 RMK A01 T01401019  RH  034%=      5-min Rain = 0
KGDS 110835Z 01019G28KT 14/M02 A30 RMK A01 T01391018  RH  034%=      5-min Rain = 0
KGDS 110840Z 01021G26KT 14/M02 A30 RMK A01 T01391018  RH  034%=      5-min Rain = 0
KGDS 110845Z 01018G24KT 14/M02 A30 RMK A01 T01381017  RH  034%=      5-min Rain = 0
KGDS 110850Z 01019G25KT 14/M02 A30 RMK A01 T01381017  RH  035%=      5-min Rain = 0
KGDS 110855Z 02020G26KT 14/M02 A3001 RMK A01 T01371016  RH  035%=      5-min Rain = 0
KGDS 110900Z 02020KT 14/M02 A3001 RMK A01 T01371015  RH  035%=      5-min Rain = 0
KGDS 110905Z 02018G25KT 14/M01 A3001 RMK A01 T01371014  RH  036%=      5-min Rain = 0
KGDS 110910Z 02018G24KT 14/M01 A3001 RMK A01 T01361013  RH  036%=      5-min Rain = 0
KGDS 110915Z 02018G24KT 14/M01 A3001 RMK A01 T01351012  RH  037%=      5-min Rain = 0
KGDS 110920Z 02017KT 13/M01 A3001 RMK A01 T01341011  RH  037%=      5-min Rain = 0
KGDS 110925Z 02019G25KT 13/M01 A3001 RMK A01 T01331011  RH  037%=      5-min Rain = 0
KGDS 110930Z 02019KT 13/M01 A3001 RMK A01 T01331010  RH  037%=      5-min Rain = 0
KGDS 110935Z 02018G24KT 13/M01 A3001 RMK A01 T01331010  RH  038%=      5-min Rain = 0
KGDS 110940Z 02018G27KT 13/M01 A3002 RMK A01 T01321010  RH  038%=      5-min Rain = 0
KGDS 110945Z 02018G23KT 13/M01 A3002 RMK A01 T01321010  RH  038%=      5-min Rain = 0
KGDS 110950Z 01016G21KT 13/M01 A3002 RMK A01 T01311010  RH  038%=      5-min Rain = 0
KGDS 110955Z 01018G23KT 13/M01 A3003 RMK A01 T01311010  RH  038%=      5-min Rain = 0
KGDS 111000Z 01017G23KT 13/M01 A3003 RMK A01 T01291010  RH  039%=      5-min Rain = 0
KGDS 111005Z 00019G26KT 13/M01 A3003 RMK A01 T01281009  RH  039%=      5-min Rain = 0
KGDS 111010Z 00019G26KT 13/M01 A3003 RMK A01 T01261006  RH  041%=      5-min Rain = 0
KGDS 111015Z 01019G24KT 13/M01 A3004 RMK A01 T01251005  RH  041%=      5-min Rain = 0
KGDS 111020Z 00017G24KT 12/M01 A3004 RMK A01 T01231005  RH  042%=      5-min Rain = 0
KGDS 111025Z 01017G25KT 12/M01 A3005 RMK A01 T01221006  RH  042%=      5-min Rain = 0
KGDS 111030Z 01016G21KT 12/M01 A3005 RMK A01 T01211007  RH  041%=      5-min Rain = 0
KGDS 111035Z 01017G23KT 12/M01 A3006 RMK A01 T01211009  RH  041%=      5-min Rain = 0
KGDS 111040Z 00018KT 12/M01 A3006 RMK A01 T01211011  RH  040%=      5-min Rain = 0
KGDS 111045Z 00017G22KT 12/M01 A3007 RMK A01 T01221013  RH  040%=      5-min Rain = 0
KGDS 111050Z 01019G26KT 12/M02 A3007 RMK A01 T01221016  RH  039%=      5-min Rain = 0
KGDS 111055Z 01020G26KT 12/M02 A3007 RMK A01 T01221020  RH  037%=      5-min Rain = 0
KGDS 111100Z 00021G27KT 12/M02 A3007 RMK A01 T01221024  RH  036%=      5-min Rain = 0
KGDS 111105Z 01019G26KT 12/M03 A3008 RMK A01 T01221027  RH  036%=      5-min Rain = 0
KGDS 111110Z 01021G28KT 12/M03 A3008 RMK A01 T01211030  RH  035%=      5-min Rain = 0
KGDS 111115Z 01021G29KT 12/M03 A3009 RMK A01 T01201030  RH  035%=      5-min Rain = 0
KGDS 111120Z 01021G26KT 12/M03 A3009 RMK A01 T01191029  RH  036%=      5-min Rain = 0
KGDS 111125Z 00022G29KT 12/M03 A301 RMK A01 T01171027  RH  037%=      5-min Rain = 0
KGDS 111130Z 00018G23KT 12/M03 A301 RMK A01 T01161025  RH  038%=      5-min Rain = 0
KGDS 111135Z 00020G29KT 11/M02 A3011 RMK A01 T01141023  RH  039%=      5-min Rain = 0
KGDS 111140Z 00018G24KT 11/M02 A3011 RMK A01 T01131022  RH  039%=      5-min Rain = 0
KGDS 111145Z 36016KT 11/M02 A3012 RMK A01 T01131021  RH  040%=      5-min Rain = 0
KGDS 111150Z 36019G26KT 11/M02 A3012 RMK A01 T01121020  RH  040%=      5-min Rain = 0
KGDS 111155Z 36018G26KT 11/M02 A3012 RMK A01 T01121019  RH  041%=      5-min Rain = 0
KGDS 111200Z 36017G23KT 11/M02 A3012 RMK A01 T01111017  RH  041%=      5-min Rain = 0
KGDS 111205Z 00020G30KT 11/M02 A3013 RMK A01 T01091016  RH  042%=      5-min Rain = 0
KGDS 111210Z 00018G26KT 11/M02 A3013 RMK A01 T01081016  RH  043%=      5-min Rain = 0
KGDS 111215Z 00018G25KT 11/M02 A3013 RMK A01 T01071015  RH  043%=      5-min Rain = 0
KGDS 111220Z 36019G27KT 11/M01 A3014 RMK A01 T01051014  RH  044%=      5-min Rain = 0
KGDS 111225Z 00022G27KT 11/M01 A3014 RMK A01 T01051013  RH  044%=      5-min Rain = 0
KGDS 111230Z 36019G25KT 10/M01 A3015 RMK A01 T01031013  RH  045%=      5-min Rain = 0
KGDS 111235Z 36017G22KT 10/M01 A3015 RMK A01 T01021012  RH  046%=      5-min Rain = 0
KGDS 111240Z 36019G24KT 10/M01 A3015 RMK A01 T01001012  RH  046%=      5-min Rain = 0
KGDS 111245Z 00019G24KT 10/M01 A3015 RMK A01 T00981012  RH  047%=      5-min Rain = 0
KGDS 111250Z 36015KT 10/M01 A3015 RMK A01 T00951012  RH  048%=      5-min Rain = 0
KGDS 111255Z 36015G20KT 09/M01 A3016 RMK A01 T00931011  RH  049%=      5-min Rain = 0
KGDS 111300Z 36016G21KT 09/M01 A3016 RMK A01 T00941010  RH  049%=      5-min Rain = 0
KGDS 111305Z 36020G26KT 09/M01 A3016 RMK A01 T00931012  RH  049%=      5-min Rain = 0
KGDS 111310Z 36020KT 09/M01 A3016 RMK A01 T00911013  RH  049%=      5-min Rain = 0
KGDS 111315Z 00017KT 09/M01 A3017 RMK A01 T00891013  RH  049%=      5-min Rain = 0
KGDS 111320Z 00015G23KT 09/M01 A3017 RMK A01 T00881014  RH  049%=      5-min Rain = 0
KGDS 111325Z 00016G22KT 09/M01 A3018 RMK A01 T00871014  RH  050%=      5-min Rain = 0
KGDS 111330Z 01021G28KT 09/M01 A3018 RMK A01 T00871014  RH  050%=      5-min Rain = 0
KGDS 111335Z 01022G31KT 09/M01 A3018 RMK A01 T00861013  RH  050%=      5-min Rain = 0
KGDS 111340Z 01021G26KT 09/M01 A3018 RMK A01 T00851013  RH  050%=      5-min Rain = 0
KGDS 111345Z 01020G26KT 09/M02 A3019 RMK A01 T00851015  RH  050%=      5-min Rain = 0
KGDS 111350Z 01022G29KT 08/M02 A3019 RMK A01 T00841016  RH  050%=      5-min Rain = 0
KGDS 111355Z 00020KT 08/M02 A3019 RMK A01 T00821015  RH  051%=      5-min Rain = 0
KGDS 111400Z 36018G27KT 08/M02 A302 RMK A01 T00821015  RH  051%=      5-min Rain = 0
KGDS 111405Z 00023G29KT 08/M02 A302 RMK A01 T00801023  RH  048%=      5-min Rain = 0
KGDS 111410Z 01021G27KT 08/M03 A302 RMK A01 T00791025  RH  049%=      5-min Rain = 0
KGDS 111415Z 00019G24KT 08/M02 A302 RMK A01 T00791024  RH  049%=      5-min Rain = 0
KGDS 111420Z 00018G23KT 08/M02 A302 RMK A01 T00791023  RH  049%=      5-min Rain = 0
KGDS 111425Z 00018KT 08/M02 A302 RMK A01 T00811021  RH  049%=      5-min Rain = 0
KGDS 111430Z 00018G23KT 08/M02 A3021 RMK A01 T00831020  RH  049%=      5-min Rain = 0
KGDS 111435Z 35018G25KT 08/M03 A3021 RMK A01 T00831027  RH  046%=      5-min Rain = 0
KGDS 111440Z 35022G29KT 08/M04 A3021 RMK A01 T00791041  RH  043%=      5-min Rain = 0
KGDS 111445Z 36019G27KT 08/M04 A3021 RMK A01 T00791042  RH  042%=      5-min Rain = 0
KGDS 111450Z 35019G27KT 08/M04 A3021 RMK A01 T00831041  RH  042%=      5-min Rain = 0
KGDS 111455Z 35022G29KT 08/M05 A3022 RMK A01 T00841049  RH  039%=      5-min Rain = 0
KGDS 111500Z 36021G26KT 09/M05 A3022 RMK A01 T00861049  RH  038%=      5-min Rain = 0
KGDS 111505Z 36021G29KT 09/M06 A3022 RMK A01 T00861059  RH  036%=      5-min Rain = 0
KGDS 111510Z 36020G28KT 08/M06 A3022 RMK A01 T00841062  RH  035%=      5-min Rain = 0
KGDS 111515Z 35020KT 08/M06 A3023 RMK A01 T00831058  RH  037%=      5-min Rain = 0
KGDS 111520Z 35019G24KT 08/M06 A3023 RMK A01 T00841062  RH  035%=      5-min Rain = 0
KGDS 111525Z 35019G25KT 09/M07 A3023 RMK A01 T00851065  RH  034%=      5-min Rain = 0
KGDS 111530Z 35021G27KT 08/M07 A3023 RMK A01 T00841073  RH  033%=      5-min Rain = 0
KGDS 111535Z 35020G25KT 09/M07 A3024 RMK A01 T00871073  RH  032%=      5-min Rain = 0
KGDS 111540Z 34021G28KT 09/M07 A3023 RMK A01 T00931071  RH  031%=      5-min Rain = 0
KGDS 111545Z 34022KT 09/M07 A3024 RMK A01 T00931073  RH  030%=      5-min Rain = 0
KGDS 111550Z 36020G28KT 09/M08 A3024 RMK A01 T00921076  RH  030%=      5-min Rain = 0
KGDS 111555Z 35022G28KT 09/M08 A3025 RMK A01 T00911077  RH  030%=      5-min Rain = 0
KGDS 111600Z 35021G28KT 09/M08 A3025 RMK A01 T00921077  RH  030%=      5-min Rain = 0
KGDS 111605Z 34021KT 09/M08 A3025 RMK A01 T00911077  RH  030%=      5-min Rain = 0
KGDS 111610Z 34021G27KT 09/M08 A3025 RMK A01 T00921078  RH  030%=      5-min Rain = 0
KGDS 111615Z 35020G25KT 09/M08 A3025 RMK A01 T00941079  RH  029%=      5-min Rain = 0
KGDS 111620Z 34021G27KT 10/M08 A3025 RMK A01 T00951080  RH  029%=      5-min Rain = 0
KGDS 111625Z 34020G25KT 10/M08 A3025 RMK A01 T00981082  RH  028%=      5-min Rain = 0
KGDS 111630Z 34020G27KT 10/M09 A3026 RMK A01 T01011085  RH  026%=      5-min Rain = 0
KGDS 111635Z 34022G27KT 10/M09 A3026 RMK A01 T00961091  RH  026%=      5-min Rain = 0
KGDS 111640Z 34023G29KT 09/M09 A3026 RMK A01 T00931093  RH  026%=      5-min Rain = 0
KGDS 111645Z 35022G28KT 09/M09 A3026 RMK A01 T00941092  RH  026%=      5-min Rain = 0
KGDS 111650Z 34021G26KT 09/M09 A3027 RMK A01 T00921093  RH  026%=      5-min Rain = 0
KGDS 111655Z 34020G25KT 09/M09 A3027 RMK A01 T00931093  RH  026%=      5-min Rain = 0
KGDS 111700Z 35020G27KT 09/M09 A3027 RMK A01 T00921092  RH  026%=      5-min Rain = 0
KGDS 111705Z 35017G24KT 10/M09 A3027 RMK A01 T00951092  RH  026%=      5-min Rain = 0
KGDS 111710Z 34019G25KT 10/M09 A3028 RMK A01 T00951091  RH  026%=      5-min Rain = 0
KGDS 111715Z 34018G24KT 09/M09 A3028 RMK A01 T00941090  RH  026%=      5-min Rain = 0
KGDS 111720Z 34019G25KT 10/M09 A3028 RMK A01 T00951089  RH  027%=      5-min Rain = 0
KGDS 111725Z 34018KT 09/M09 A3028 RMK A01 T00941090  RH  027%=      5-min Rain = 0
KGDS 111730Z 35017KT 10/M09 A3028 RMK A01 T00961089  RH  027%=      5-min Rain = 0
KGDS 111735Z 34016G21KT 10/M09 A3028 RMK A01 T00981088  RH  026%=      5-min Rain = 0
KGDS 111740Z 34018G23KT 10/M09 A3027 RMK A01 T01011088  RH  026%=      5-min Rain = 0
KGDS 111745Z 35018G23KT 11/M09 A3027 RMK A01 T01051090  RH  025%=      5-min Rain = 0
KGDS 111750Z 34016G23KT 11/M09 A3027 RMK A01 T01071091  RH  024%=      5-min Rain = 0
KGDS 111755Z 35018G24KT 11/M10 A3026 RMK A01 T01081095  RH  023%=      5-min Rain = 0
KGDS 111800Z 36017G23KT 11/M10 A3026 RMK A01 T01121095  RH  023%=      5-min Rain = 0
KGDS 111805Z 34018G24KT 12/M09 A3026 RMK A01 T01181093  RH  022%=      5-min Rain = 0
KGDS 111810Z 35018G25KT 12/M09 A3026 RMK A01 T01181093  RH  022%=      5-min Rain = 0
KGDS 111815Z 01019G25KT 12/M09 A3026 RMK A01 T01201090  RH  022%=      5-min Rain = 0
KGDS 111820Z 36019G27KT 13/M09 A3025 RMK A01 T01281090  RH  021%=      5-min Rain = 0
KGDS 111825Z 35018G24KT 13/M09 A3025 RMK A01 T01311093  RH  020%=      5-min Rain = 0
KGDS 111830Z 00019G26KT 13/M09 A3025 RMK A01 T01301094  RH  020%=      5-min Rain = 0
KGDS 111835Z 00019G25KT 13/M10 A3025 RMK A01 T01321095  RH  020%=      5-min Rain = 0
KGDS 111840Z 36016KT 13/M10 A3025 RMK A01 T01321095  RH  020%=      5-min Rain = 0
KGDS 111845Z 00018G24KT 14/M10 A3025 RMK A01 T01351103  RH  018%=      5-min Rain = 0
KGDS 111850Z 36018G24KT 13/M10 A3025 RMK A01 T01341103  RH  018%=      5-min Rain = 0
KGDS 111855Z 00018G27KT 14/M11 A3024 RMK A01 T01361106  RH  018%=      5-min Rain = 0
KGDS 111900Z 34019G24KT 14/M11 A3024 RMK A01 T01411109  RH  017%=      5-min Rain = 0
KGDS 111905Z 34016G22KT 15/M11 A3024 RMK A01 T01471109  RH  016%=      5-min Rain = 0
KGDS 111910Z 34020G29KT 15/M12 A3023 RMK A01 T01491124  RH  014%=      5-min Rain = 0
KGDS 111915Z 34020G25KT 15/M13 A3023 RMK A01 T01501128  RH  014%=      5-min Rain = 0
KGDS 111920Z 34021G26KT 15/M13 A3023 RMK A01 T01491127  RH  014%=      5-min Rain = 0
KGDS 111925Z 35022G27KT 15/M13 A3023 RMK A01 T01471131  RH  014%=      5-min Rain = 0
KGDS 111930Z 35018G24KT 15/M13 A3023 RMK A01 T01461129  RH  014%=      5-min Rain = 0
KGDS 111935Z 01018G25KT 15/M13 A3023 RMK A01 T01461131  RH  014%=      5-min Rain = 0
KGDS 111940Z 01019G24KT 15/M13 A3023 RMK A01 T01451133  RH  014%=      5-min Rain = 0
KGDS 111945Z 35017G22KT 15/M13 A3023 RMK A01 T01451131  RH  014%=      5-min Rain = 0
KGDS 111950Z 35016G24KT 15/M13 A3022 RMK A01 T01481132  RH  013%=      5-min Rain = 0
KGDS 111955Z 01020G25KT 15/M14 A3023 RMK A01 T01511139  RH  012%=      5-min Rain = 0
KGDS 112000Z 01017KT 15/M14 A3023 RMK A01 T01471137  RH  013%=      5-min Rain = 0
KGDS 112005Z 35018G25KT 15/M13 A3023 RMK A01 T01481132  RH  013%=      5-min Rain = 0
KGDS 112010Z 36019G24KT 14/M13 A3023 RMK A01 T01441129  RH  014%=      5-min Rain = 0
KGDS 112015Z 36019G25KT 15/M13 A3023 RMK A01 T01451126  RH  014%=      5-min Rain = 0
KGDS 112020Z 35020KT 14/M12 A3023 RMK A01 T01431120  RH  015%=      5-min Rain = 0
KGDS 112025Z 00019G25KT 14/M12 A3023 RMK A01 T01441115  RH  016%=      5-min Rain = 0
KGDS 112030Z 36015G23KT 14/M11 A3023 RMK A01 T01441107  RH  017%=      5-min Rain = 0
KGDS 112035Z 36016G22KT 15/M11 A3022 RMK A01 T01451105  RH  017%=      5-min Rain = 0
KGDS 112040Z 35017G27KT 15/M10 A3023 RMK A01 T01461100  RH  018%=      5-min Rain = 0
KGDS 112045Z 34016G21KT 15/M10 A3023 RMK A01 T01451096  RH  018%=      5-min Rain = 0
KGDS 112050Z 34017G23KT 15/M09 A3023 RMK A01 T01451094  RH  018%=      5-min Rain = 0
KGDS 112055Z 34014G20KT 15/M09 A3023 RMK A01 T01461092  RH  019%=      5-min Rain = 0
KGDS 112100Z 01016G24KT 15/M09 A3023 RMK A01 T01461088  RH  019%=      5-min Rain = 0
KGDS 112105Z 35013G18KT 15/M09 A3022 RMK A01 T01471086  RH  019%=      5-min Rain = 0
KGDS 112110Z 35016KT 15/M08 A3022 RMK A01 T01501080  RH  020%=      5-min Rain = 0
KGDS 112115Z 36016G26KT 15/M08 A3022 RMK A01 T01501080  RH  020%=      5-min Rain = 0
KGDS 112120Z 35015KT 15/M08 A3022 RMK A01 T01481080  RH  020%=      5-min Rain = 0
KGDS 112125Z 02014KT 15/M08 A3022 RMK A01 T01501077  RH  020%=      5-min Rain = 0
KGDS 112130Z 01011G20KT 15/M07 A3022 RMK A01 T01531074  RH  021%=      5-min Rain = 0
KGDS 112135Z 35013G21KT 16/M07 A3022 RMK A01 T01561072  RH  020%=      5-min Rain = 0
KGDS 112140Z 35013G22KT 16/M07 A3021 RMK A01 T01551070  RH  021%=      5-min Rain = 0
KGDS 112145Z 36014G20KT 16/M07 A3021 RMK A01 T01561068  RH  021%=      5-min Rain = 0
KGDS 112150Z 02016G21KT 15/M07 A3022 RMK A01 T01521067  RH  022%=      5-min Rain = 0
KGDS 112155Z 01015G22KT 15/M07 A3022 RMK A01 T01531066  RH  022%=      5-min Rain = 0
KGDS 112200Z 00015G20KT 15/M07 A3022 RMK A01 T01511067  RH  022%=      5-min Rain = 0
KGDS 112205Z 01014KT 15/M07 A3022 RMK A01 T01471065  RH  023%=      5-min Rain = 0
KGDS 112210Z 02013KT 15/M06 A3022 RMK A01 T01541063  RH  022%=      5-min Rain = 0
KGDS 112215Z 35014G20KT 16/M06 A3022 RMK A01 T01551064  RH  022%=      5-min Rain = 0
KGDS 112220Z 35012KT 15/M06 A3022 RMK A01 T01491064  RH  023%=      5-min Rain = 0
KGDS 112225Z 00011G16KT 15/M06 A3022 RMK A01 T01521062  RH  023%=      5-min Rain = 0
KGDS 112230Z 01013G18KT 16/M06 A3022 RMK A01 T01551063  RH  022%=      5-min Rain = 0
KGDS 112235Z 01014G19KT 16/M06 A3022 RMK A01 T01561064  RH  022%=      5-min Rain = 0
KGDS 112240Z 00014G19KT 16/M06 A3022 RMK A01 T01561063  RH  022%=      5-min Rain = 0
KGDS 112245Z 00014G20KT 15/M06 A3022 RMK A01 T01541062  RH  022%=      5-min Rain = 0
KGDS 112250Z 01015G20KT 15/M06 A3023 RMK A01 T01521062  RH  023%=      5-min Rain = 0
KGDS 112255Z 01015KT 15/M06 A3023 RMK A01 T01521062  RH  023%=      5-min Rain = 0
KGDS 112300Z 00014KT 15/M06 A3023 RMK A01 T01521061  RH  023%=      5-min Rain = 0
KGDS 112305Z 00013KT 15/M06 A3023 RMK A01 T01501061  RH  023%=      5-min Rain = 0
KGDS 112310Z 01013G18KT 15/M06 A3023 RMK A01 T01521061  RH  023%=      5-min Rain = 0
KGDS 112315Z 01011G16KT 15/M06 A3023 RMK A01 T01511062  RH  023%=      5-min Rain = 0
KGDS 112320Z 00013G18KT 15/M06 A3023 RMK A01 T01471061  RH  023%=      5-min Rain = 0
KGDS 112325Z 01015KT 15/M06 A3023 RMK A01 T01471061  RH  024%=      5-min Rain = 0
KGDS 112330Z 02012G20KT 15/M06 A3024 RMK A01 T01461061  RH  024%=      5-min Rain = 0
KGDS 112335Z 01015KT 14/M06 A3024 RMK A01 T01431062  RH  024%=      5-min Rain = 0
KGDS 112340Z 02014G19KT 14/M06 A3024 RMK A01 T01421063  RH  024%=      5-min Rain = 0
KGDS 112345Z 36014G19KT 14/M06 A3024 RMK A01 T01401064  RH  024%=      5-min Rain = 0
KGDS 112350Z 02014G20KT 14/M07 A3025 RMK A01 T01391065  RH  024%=      5-min Rain = 0
KGDS 112355Z 01014KT 14/M07 A3025 RMK A01 T01381065  RH  024%=      5-min Rain = 0
KGDS 120000Z 02012KT 14/M07 A3025 RMK A01 T01371066  RH  024%=      5-min Rain = 0
KGDS 120005Z 00012KT 14/M07 A3025 RMK A01 T01361066  RH  024%=      5-min Rain = 0
KGDS 120010Z 01012KT 13/M07 A3025 RMK A01 T01331067  RH  025%=      5-min Rain = 0
KGDS 120015Z 01011KT 13/M07 A3025 RMK A01 T01291068  RH  025%=      5-min Rain = 0
KGDS 120020Z 01011KT 13/M07 A3025 RMK A01 T01271068  RH  025%=      5-min Rain = 0
KGDS 120025Z 02010KT 13/M07 A3026 RMK A01 T01251068  RH  026%=      5-min Rain = 0
KGDS 120030Z 01011KT 12/M07 A3026 RMK A01 T01221068  RH  026%=      5-min Rain = 0
KGDS 120035Z 01010KT 12/M07 A3026 RMK A01 T01221068  RH  026%=      5-min Rain = 0
KGDS 120040Z 01010KT 12/M07 A3026 RMK A01 T01181068  RH  027%=      5-min Rain = 0
KGDS 120045Z 01008KT 11/M07 A3027 RMK A01 T01141068  RH  028%=      5-min Rain = 0
KGDS 120050Z 02007KT 11/M07 A3027 RMK A01 T01111068  RH  028%=      5-min Rain = 0
KGDS 120055Z 02007KT 11/M07 A3027 RMK A01 T01071068  RH  029%=      5-min Rain = 0
KGDS 120100Z 02007KT 10/M07 A3027 RMK A01 T01041068  RH  029%=      5-min Rain = 0
KGDS 120105Z 02007KT 10/M07 A3027 RMK A01 T00991069  RH  030%=      5-min Rain = 0
KGDS 120110Z 01008KT 10/M07 A3028 RMK A01 T00971067  RH  031%=      5-min Rain = 0
KGDS 120115Z 01007KT 10/M07 A3028 RMK A01 T00971068  RH  031%=      5-min Rain = 0
KGDS 120120Z 01007KT 09/M07 A3028 RMK A01 T00881071  RH  032%=      5-min Rain = 0
KGDS 120125Z 02007KT 08/M07 A3028 RMK A01 T00841070  RH  033%=      5-min Rain = 0
KGDS 120130Z 01007KT 08/M07 A3028 RMK A01 T00831069  RH  034%=      5-min Rain = 0
KGDS 120135Z 01007KT 08/M07 A3029 RMK A01 T00821068  RH  034%=      5-min Rain = 0
KGDS 120140Z 01007KT 08/M07 A3029 RMK A01 T00811067  RH  035%=      5-min Rain = 0
KGDS 120145Z 01007KT 08/M07 A3029 RMK A01 T00811065  RH  035%=      5-min Rain = 0
KGDS 120150Z 01007KT 08/M07 A3029 RMK A01 T00781065  RH  036%=      5-min Rain = 0
KGDS 120155Z 01008KT 08/M06 A3029 RMK A01 T00761063  RH  037%=      5-min Rain = 0
KGDS 120200Z 01007KT 08/M06 A303 RMK A01 T00751062  RH  038%=      5-min Rain = 0
KGDS 120205Z 01008KT 07/M06 A303 RMK A01 T00731061  RH  038%=      5-min Rain = 0
KGDS 120210Z 01008KT 07/M06 A303 RMK A01 T00721061  RH  039%=      5-min Rain = 0
KGDS 120215Z 01007KT 07/M06 A303 RMK A01 T00711061  RH  039%=      5-min Rain = 0
KGDS 120220Z 01007KT 07/M06 A3031 RMK A01 T00721059  RH  039%=      5-min Rain = 0
KGDS 120225Z 02007KT 07/M06 A3031 RMK A01 T00731061  RH  038%=      5-min Rain = 0
KGDS 120230Z 02007KT 07/M06 A3031 RMK A01 T00681060  RH  040%=      5-min Rain = 0
KGDS 120235Z 02006KT 07/M06 A3031 RMK A01 T00671057  RH  041%=      5-min Rain = 0
KGDS 120240Z 02006KT 07/M06 A3031 RMK A01 T00681055  RH  041%=      5-min Rain = 0
KGDS 120245Z 02006KT 07/M06 A3032 RMK A01 T00691055  RH  042%=      5-min Rain = 0
KGDS 120250Z 01006KT 07/M06 A3032 RMK A01 T00671055  RH  042%=      5-min Rain = 0
KGDS 120255Z 01007KT 06/M05 A3032 RMK A01 T00631054  RH  043%=      5-min Rain = 0
KGDS 120300Z 01007KT 06/M05 A3032 RMK A01 T00621053  RH  044%=      5-min Rain = 0
KGDS 120305Z 01007KT 06/M05 A3033 RMK A01 T00621053  RH  044%=      5-min Rain = 0
KGDS 120310Z 01006KT 06/M06 A3033 RMK A01 T00571055  RH  045%=      5-min Rain = 0
KGDS 120315Z 01006KT 05/M06 A3033 RMK A01 T00541056  RH  045%=      5-min Rain = 0
KGDS 120320Z 01006KT 05/M06 A3033 RMK A01 T00521057  RH  046%=      5-min Rain = 0
KGDS 120325Z 01006KT 05/M06 A3033 RMK A01 T00491057  RH  047%=      5-min Rain = 0
KGDS 120330Z 01007KT 05/M06 A3033 RMK A01 T00481056  RH  047%=      5-min Rain = 0
KGDS 120335Z 01007KT 05/M06 A3034 RMK A01 T00491057  RH  047%=      5-min Rain = 0
KGDS 120340Z 01007KT 05/M06 A3034 RMK A01 T00471058  RH  047%=      5-min Rain = 0
KGDS 120345Z 01007KT 05/M06 A3034 RMK A01 T00481056  RH  048%=      5-min Rain = 0
KGDS 120350Z 01008KT 05/M06 A3034 RMK A01 T00481055  RH  048%=      5-min Rain = 0
KGDS 120355Z 01008KT 05/M05 A3034 RMK A01 T00511052  RH  048%=      5-min Rain = 0
KGDS 120400Z 01007KT 05/M05 A3034 RMK A01 T00501052  RH  048%=      5-min Rain = 0
KGDS 120405Z 00006KT 05/M05 A3034 RMK A01 T00481052  RH  049%=      5-min Rain = 0
KGDS 120410Z 00006KT 05/M05 A3034 RMK A01 T00461052  RH  050%=      5-min Rain = 0
KGDS 120415Z 00005KT 04/M05 A3034 RMK A01 T00441053  RH  050%=      5-min Rain = 0
KGDS 120420Z 00005KT 04/M05 A3034 RMK A01 T00421053  RH  051%=      5-min Rain = 0
KGDS 120425Z 01005KT 04/M05 A3034 RMK A01 T00421052  RH  051%=      5-min Rain = 0
KGDS 120430Z 00005KT 04/M05 A3034 RMK A01 T00441052  RH  050%=      5-min Rain = 0
KGDS 120435Z 01004KT 05/M05 A3035 RMK A01 T00451050  RH  050%=      5-min Rain = 0
KGDS 120440Z 00003KT 05/M05 A3035 RMK A01 T00471051  RH  050%=      5-min Rain = 0
KGDS 120445Z 36003KT 05/M05 A3035 RMK A01 T00451052  RH  050%=      5-min Rain = 0
KGDS 120450Z 35003KT 04/M05 A3035 RMK A01 T00421053  RH  050%=      5-min Rain = 0
KGDS 120455Z 35004KT 04/M05 A3035 RMK A01 T00411054  RH  051%=      5-min Rain = 0

Page generated in 0.0091 seconds.